Pagrindinis puslapis
METAR-TAF:

METAR-TAF

Oro uostai :

San Visentės sala, Žaliasis Kyšulys

platuma: 16-49-59N, ilguma: 25-03-25W, Aukštis: 20 m

Dabartinis oras

Ataskaita buvo paskelbta 21 minutes, ne 07:00 UTC
Vėjas 23 kt iš Šiaurės Rytų
Temperatūra 22°C
Drėgmė 65%
Slėgis 1014 hPa
Matomumas: 4000 m
Mažai debesys ne aukštis 2000 ft
Su prošvaistėmis ne aukštis 20000 ft
migla

METAR: GVSV 020700Z 05023KT 4000 HZ FEW020 BKN200 22/15 Q1014 NOSIG

Laikas: 06:21 (07:21 UTC)

Prognozė

Ataskaita buvo paskelbta 2 valandos ir 21 minutes, ne 05:00 UTC
Prognozė galioja nuo 02 metu 06 UTC su 03 metu 12 UTC
Vėjas 25 kt iš Rytų/Šiaurės Rytų
Matomumas: 4000 m
Mažai debesys ne aukštis 2000 ft
migla
Laikinai
nuo 02 metu 12 UTC su 02 metu 18 UTC
Vėjas 30 kt iš Rytų/Šiaurės Rytų su gūsio iki 40 kt
Matomumas: 6000 m

TAF: GVSV 020500Z 0206/0312 06025KT 4000 HZ FEW020 TEMPO 0212/0218 06030G40KT 6000

Orai ataskaitas ir orų prognozės (METAR, TAF).

turimą stotys yra geltonos ir raudonos taškus žemėlapyje.

Perkelti pele per norėdami pamatyti stoties vardą.

Tada spustelėkite, norėdami matyti oro stebėjimo ir prognozės.

Norėdami pakeisti žemėlapį: spustelėkite ant žalios mygtukų su juodo kryžiaus žemyn,; žalią mygtuką su brūkšneliu, jei norite nutolinti; arba žalių rodyklių gretimoms žemėlapius.


METAR-TAF: